sensor_id;sensor_type;location;lat;lon;timestamp;P1;durP1;ratioP1;P2;durP2;ratioP2
40048;SDS011;54524;55.740;37.544;2024-01-30T00:01:04;5.7;;;5;;
40048;SDS011;54524;55.740;37.544;2024-01-30T00:02:05;5.6;;;5;;
40048;SDS011;54524;55.740;37.544;2024-01-30T00:03:05;5.6;;;5;;
40048;SDS011;54524;55.740;37.544;2024-01-30T00:04:06;5.6;;;4.7;;
40048;SDS011;54524;55.740;37.544;2024-01-30T00:05:06;5.6;;;4.7;;
40048;SDS011;54524;55.740;37.544;2024-01-30T00:06:07;5.7;;;4.8;;
40048;SDS011;54524;55.740;37.544;2024-01-30T00:07:08;5.7;;;4.9;;
40048;SDS011;54524;55.740;37.544;2024-01-30T00:08:08;5.8;;;4.9;;
40048;SDS011;54524;55.740;37.544;2024-01-30T00:09:09;5.8;;;5;;
40048;SDS011;54524;55.740;37.544;2024-01-30T00:11:03;6;;;5;;
40048;SDS011;54524;55.740;37.544;2024-01-30T00:12:04;6.1;;;5;;
40048;SDS011;54524;55.740;37.544;2024-01-30T00:13:05;6.8;;;5.1;;
40048;SDS011;54524;55.740;37.544;2024-01-30T00:14:05;6.3;;;5.1;;
40048;SDS011;54524;55.740;37.544;2024-01-30T00:15:06;6.4;;;5.1;;
40048;SDS011;54524;55.740;37.544;2024-01-30T00:16:19;5.3;;;4.8;;
40048;SDS011;54524;55.740;37.544;2024-01-30T00:17:20;5.3;;;4.8;;
40048;SDS011;54524;55.740;37.544;2024-01-30T00:18:21;5.3;;;4.8;;
40048;SDS011;54524;55.740;37.544;2024-01-30T00:19:21;6.2;;;4.8;;
40048;SDS011;54524;55.740;37.544;2024-01-30T00:21:03;6.1;;;4.9;;
40048;SDS011;54524;55.740;37.544;2024-01-30T00:22:04;5.5;;;4.8;;
40048;SDS011;54524;55.740;37.544;2024-01-30T00:23:04;5.6;;;4.8;;
40048;SDS011;54524;55.740;37.544;2024-01-30T00:24:05;5.5;;;4.7;;
40048;SDS011;54524;55.740;37.544;2024-01-30T00:25:05;5.2;;;4.6;;
40048;SDS011;54524;55.740;37.544;2024-01-30T00:26:06;5.1;;;4.6;;
40048;SDS011;54524;55.740;37.544;2024-01-30T00:27:07;5.2;;;4.7;;
40048;SDS011;54524;55.740;37.544;2024-01-30T00:28:08;6;;;5.1;;
40048;SDS011;54524;55.740;37.544;2024-01-30T00:29:08;5.9;;;5;;
40048;SDS011;54524;55.740;37.544;2024-01-30T00:31:05;5.3;;;4.7;;
40048;SDS011;54524;55.740;37.544;2024-01-30T00:32:06;5.2;;;4.7;;
40048;SDS011;54524;55.740;37.544;2024-01-30T00:33:07;5.1;;;4.6;;
40048;SDS011;54524;55.740;37.544;2024-01-30T00:34:08;5.3;;;4.8;;
40048;SDS011;54524;55.740;37.544;2024-01-30T00:35:09;5.3;;;4.8;;
40048;SDS011;54524;55.740;37.544;2024-01-30T00:36:10;5.3;;;4.8;;
40048;SDS011;54524;55.740;37.544;2024-01-30T00:37:11;5.2;;;4.7;;
40048;SDS011;54524;55.740;37.544;2024-01-30T00:38:12;5.2;;;4.7;;
40048;SDS011;54524;55.740;37.544;2024-01-30T00:39:12;5.1;;;4.6;;
40048;SDS011;54524;55.740;37.544;2024-01-30T00:41:03;5.2;;;4.7;;
40048;SDS011;54524;55.740;37.544;2024-01-30T00:42:04;5.2;;;4.7;;
40048;SDS011;54524;55.740;37.544;2024-01-30T00:43:05;6.1;;;5;;
40048;SDS011;54524;55.740;37.544;2024-01-30T00:44:06;6;;;5;;
40048;SDS011;54524;55.740;37.544;2024-01-30T00:45:11;5.6;;;5;;
40048;SDS011;54524;55.740;37.544;2024-01-30T00:46:11;5.9;;;5;;
40048;SDS011;54524;55.740;37.544;2024-01-30T00:47:12;5.8;;;4.9;;
40048;SDS011;54524;55.740;37.544;2024-01-30T00:48:12;5.6;;;4.8;;
40048;SDS011;54524;55.740;37.544;2024-01-30T00:49:13;5.6;;;5;;
40048;SDS011;54524;55.740;37.544;2024-01-30T00:51:03;5.6;;;5;;
40048;SDS011;54524;55.740;37.544;2024-01-30T00:52:04;5.5;;;4.9;;
40048;SDS011;54524;55.740;37.544;2024-01-30T00:53:05;5.5;;;4.9;;
40048;SDS011;54524;55.740;37.544;2024-01-30T00:54:06;5.5;;;4.9;;
40048;SDS011;54524;55.740;37.544;2024-01-30T00:55:06;5.4;;;4.9;;
40048;SDS011;54524;55.740;37.544;2024-01-30T00:56:07;5.4;;;4.9;;
40048;SDS011;54524;55.740;37.544;2024-01-30T00:57:08;5.4;;;4.9;;
40048;SDS011;54524;55.740;37.544;2024-01-30T00:58:09;5.4;;;4.9;;
40048;SDS011;54524;55.740;37.544;2024-01-30T00:59:09;5.5;;;5;;
40048;SDS011;54524;55.740;37.544;2024-01-30T01:01:04;5.5;;;5;;
40048;SDS011;54524;55.740;37.544;2024-01-30T01:02:04;6.3;;;5;;
40048;SDS011;54524;55.740;37.544;2024-01-30T01:03:05;6.3;;;5;;
40048;SDS011;54524;55.740;37.544;2024-01-30T01:04:05;6.3;;;5;;
40048;SDS011;54524;55.740;37.544;2024-01-30T01:05:06;5.5;;;4.9;;
40048;SDS011;54524;55.740;37.544;2024-01-30T01:06:06;5.4;;;4.8;;
40048;SDS011;54524;55.740;37.544;2024-01-30T01:07:07;5.4;;;4.8;;
40048;SDS011;54524;55.740;37.544;2024-01-30T01:08:08;5.5;;;4.8;;
40048;SDS011;54524;55.740;37.544;2024-01-30T01:09:10;5.6;;;4.9;;
40048;SDS011;54524;55.740;37.544;2024-01-30T01:11:03;5.9;;;5;;
40048;SDS011;54524;55.740;37.544;2024-01-30T01:12:04;6;;;5;;
40048;SDS011;54524;55.740;37.544;2024-01-30T01:13:04;5.9;;;5;;
40048;SDS011;54524;55.740;37.544;2024-01-30T01:14:05;5.9;;;4.5;;
40048;SDS011;54524;55.740;37.544;2024-01-30T01:15:06;5.9;;;4.5;;
40048;SDS011;54524;55.740;37.544;2024-01-30T01:16:09;6;;;4.5;;
40048;SDS011;54524;55.740;37.544;2024-01-30T01:17:10;5.6;;;4.9;;
40048;SDS011;54524;55.740;37.544;2024-01-30T01:18:11;5.5;;;4.9;;
40048;SDS011;54524;55.740;37.544;2024-01-30T01:19:11;5.6;;;4.9;;
40048;SDS011;54524;55.740;37.544;2024-01-30T01:21:03;5.8;;;5.1;;
40048;SDS011;54524;55.740;37.544;2024-01-30T01:22:03;5.7;;;5.1;;
40048;SDS011;54524;55.740;37.544;2024-01-30T01:23:04;6.4;;;4.8;;
40048;SDS011;54524;55.740;37.544;2024-01-30T01:24:05;6.3;;;4.9;;
40048;SDS011;54524;55.740;37.544;2024-01-30T01:25:06;6.2;;;4.8;;
40048;SDS011;54524;55.740;37.544;2024-01-30T01:26:08;5.4;;;4.8;;
40048;SDS011;54524;55.740;37.544;2024-01-30T01:27:10;5.3;;;4.8;;
40048;SDS011;54524;55.740;37.544;2024-01-30T01:28:10;5.4;;;4.7;;
40048;SDS011;54524;55.740;37.544;2024-01-30T01:29:11;5.5;;;4.8;;
40048;SDS011;54524;55.740;37.544;2024-01-30T01:31:03;5.6;;;4.8;;
40048;SDS011;54524;55.740;37.544;2024-01-30T01:32:05;5.6;;;4.8;;
40048;SDS011;54524;55.740;37.544;2024-01-30T01:33:06;5.3;;;4.8;;
40048;SDS011;54524;55.740;37.544;2024-01-30T01:34:06;5.3;;;4.8;;
40048;SDS011;54524;55.740;37.544;2024-01-30T01:35:07;5.3;;;4.8;;
40048;SDS011;54524;55.740;37.544;2024-01-30T01:36:08;5;;;4.5;;
40048;SDS011;54524;55.740;37.544;2024-01-30T01:37:09;5;;;4.5;;
40048;SDS011;54524;55.740;37.544;2024-01-30T01:38:09;5.1;;;4.6;;
40048;SDS011;54524;55.740;37.544;2024-01-30T01:39:10;5.5;;;4.8;;
40048;SDS011;54524;55.740;37.544;2024-01-30T01:41:03;5.6;;;4.8;;
40048;SDS011;54524;55.740;37.544;2024-01-30T01:42:04;6.5;;;5.2;;
40048;SDS011;54524;55.740;37.544;2024-01-30T01:43:04;6;;;5.2;;
40048;SDS011;54524;55.740;37.544;2024-01-30T01:44:05;5.8;;;5.1;;
40048;SDS011;54524;55.740;37.544;2024-01-30T01:45:06;5.1;;;4.6;;
40048;SDS011;54524;55.740;37.544;2024-01-30T01:46:07;5.1;;;4.6;;
40048;SDS011;54524;55.740;37.544;2024-01-30T01:47:08;5.1;;;4.6;;
40048;SDS011;54524;55.740;37.544;2024-01-30T01:48:09;5.7;;;4.9;;
40048;SDS011;54524;55.740;37.544;2024-01-30T01:49:09;5.6;;;4.9;;
40048;SDS011;54524;55.740;37.544;2024-01-30T01:51:03;5.6;;;5;;
40048;SDS011;54524;55.740;37.544;2024-01-30T01:52:04;5.5;;;4.9;;
40048;SDS011;54524;55.740;37.544;2024-01-30T01:53:04;5.5;;;4.9;;
40048;SDS011;54524;55.740;37.544;2024-01-30T01:54:07;5.9;;;5;;
40048;SDS011;54524;55.740;37.544;2024-01-30T01:55:08;6;;;5;;
40048;SDS011;54524;55.740;37.544;2024-01-30T01:56:09;5.8;;;5;;
40048;SDS011;54524;55.740;37.544;2024-01-30T01:57:10;5.2;;;4.7;;
40048;SDS011;54524;55.740;37.544;2024-01-30T01:58:10;5.2;;;4.7;;
40048;SDS011;54524;55.740;37.544;2024-01-30T01:59:12;5.1;;;4.6;;
40048;SDS011;54524;55.740;37.544;2024-01-30T02:01:04;6;;;4.9;;
40048;SDS011;54524;55.740;37.544;2024-01-30T02:02:05;5.9;;;4.8;;
40048;SDS011;54524;55.740;37.544;2024-01-30T02:03:09;5.9;;;4.8;;
40048;SDS011;54524;55.740;37.544;2024-01-30T02:04:10;5.9;;;5;;
40048;SDS011;54524;55.740;37.544;2024-01-30T02:05:10;5.9;;;4.9;;
40048;SDS011;54524;55.740;37.544;2024-01-30T02:06:11;5.9;;;4.9;;
40048;SDS011;54524;55.740;37.544;2024-01-30T02:07:12;6.1;;;5.3;;
40048;SDS011;54524;55.740;37.544;2024-01-30T02:08:12;6.1;;;5.3;;
40048;SDS011;54524;55.740;37.544;2024-01-30T02:09:13;5.8;;;5.2;;
40048;SDS011;54524;55.740;37.544;2024-01-30T02:11:03;5.7;;;5.1;;
40048;SDS011;54524;55.740;37.544;2024-01-30T02:12:04;5.7;;;5.1;;
40048;SDS011;54524;55.740;37.544;2024-01-30T02:13:04;7;;;5;;
40048;SDS011;54524;55.740;37.544;2024-01-30T02:14:05;7.1;;;5;;
40048;SDS011;54524;55.740;37.544;2024-01-30T02:15:06;7.2;;;5;;
40048;SDS011;54524;55.740;37.544;2024-01-30T02:16:08;5.6;;;5;;
40048;SDS011;54524;55.740;37.544;2024-01-30T02:17:08;5.5;;;5;;
40048;SDS011;54524;55.740;37.544;2024-01-30T02:18:09;5.4;;;4.9;;
40048;SDS011;54524;55.740;37.544;2024-01-30T02:19:09;6.1;;;5.1;;
40048;SDS011;54524;55.740;37.544;2024-01-30T02:21:04;6.1;;;5.1;;
40048;SDS011;54524;55.740;37.544;2024-01-30T02:22:04;5.4;;;4.9;;
40048;SDS011;54524;55.740;37.544;2024-01-30T02:23:05;5.6;;;4.9;;
40048;SDS011;54524;55.740;37.544;2024-01-30T02:24:07;5.6;;;4.9;;
40048;SDS011;54524;55.740;37.544;2024-01-30T02:25:08;6.9;;;5.2;;
40048;SDS011;54524;55.740;37.544;2024-01-30T02:26:08;7;;;5.2;;
40048;SDS011;54524;55.740;37.544;2024-01-30T02:27:09;6.9;;;5.3;;
40048;SDS011;54524;55.740;37.544;2024-01-30T02:28:09;6;;;5.1;;
40048;SDS011;54524;55.740;37.544;2024-01-30T02:29:10;6;;;5.1;;
40048;SDS011;54524;55.740;37.544;2024-01-30T02:31:04;5.5;;;5;;
40048;SDS011;54524;55.740;37.544;2024-01-30T02:32:05;5.5;;;5;;
40048;SDS011;54524;55.740;37.544;2024-01-30T02:33:06;5.5;;;5;;
40048;SDS011;54524;55.740;37.544;2024-01-30T02:34:07;5.6;;;5;;
40048;SDS011;54524;55.740;37.544;2024-01-30T02:35:07;5.7;;;5;;
40048;SDS011;54524;55.740;37.544;2024-01-30T02:36:07;5.8;;;5;;
40048;SDS011;54524;55.740;37.544;2024-01-30T02:37:08;6;;;5.4;;
40048;SDS011;54524;55.740;37.544;2024-01-30T02:38:09;6;;;5.4;;
40048;SDS011;54524;55.740;37.544;2024-01-30T02:39:09;6;;;5.4;;
40048;SDS011;54524;55.740;37.544;2024-01-30T02:41:03;6;;;4.9;;
40048;SDS011;54524;55.740;37.544;2024-01-30T02:42:04;5.9;;;4.9;;
40048;SDS011;54524;55.740;37.544;2024-01-30T02:43:05;5.9;;;4.9;;
40048;SDS011;54524;55.740;37.544;2024-01-30T02:44:06;6;;;5;;
40048;SDS011;54524;55.740;37.544;2024-01-30T02:45:06;6;;;5;;
40048;SDS011;54524;55.740;37.544;2024-01-30T02:46:07;5.8;;;5;;
40048;SDS011;54524;55.740;37.544;2024-01-30T02:47:08;5.9;;;4.9;;
40048;SDS011;54524;55.740;37.544;2024-01-30T02:48:08;5.8;;;4.9;;
40048;SDS011;54524;55.740;37.544;2024-01-30T02:49:09;5.8;;;4.9;;
40048;SDS011;54524;55.740;37.544;2024-01-30T02:51:02;5.6;;;5;;
40048;SDS011;54524;55.740;37.544;2024-01-30T02:52:03;5.7;;;4.9;;
40048;SDS011;54524;55.740;37.544;2024-01-30T02:53:04;6;;;4.8;;
40048;SDS011;54524;55.740;37.544;2024-01-30T02:54:04;6;;;4.8;;
40048;SDS011;54524;55.740;37.544;2024-01-30T02:55:05;5.9;;;4.8;;
40048;SDS011;54524;55.740;37.544;2024-01-30T02:56:06;6.8;;;5;;
40048;SDS011;54524;55.740;37.544;2024-01-30T02:57:09;6.7;;;5.1;;
40048;SDS011;54524;55.740;37.544;2024-01-30T02:58:10;6.6;;;5.1;;
40048;SDS011;54524;55.740;37.544;2024-01-30T02:59:11;6;;;4.9;;
40048;SDS011;54524;55.740;37.544;2024-01-30T03:01:05;6;;;4.9;;
40048;SDS011;54524;55.740;37.544;2024-01-30T03:02:06;5.7;;;5;;
40048;SDS011;54524;55.740;37.544;2024-01-30T03:03:06;5.7;;;5;;
40048;SDS011;54524;55.740;37.544;2024-01-30T03:04:07;5.8;;;5;;
40048;SDS011;54524;55.740;37.544;2024-01-30T03:05:07;5.7;;;5.1;;
40048;SDS011;54524;55.740;37.544;2024-01-30T03:06:08;5.7;;;5.1;;
40048;SDS011;54524;55.740;37.544;2024-01-30T03:07:09;5.8;;;5.2;;
40048;SDS011;54524;55.740;37.544;2024-01-30T03:08:09;5.4;;;4.9;;
40048;SDS011;54524;55.740;37.544;2024-01-30T03:09:10;5.6;;;5;;
40048;SDS011;54524;55.740;37.544;2024-01-30T03:11:03;6.4;;;5.3;;
40048;SDS011;54524;55.740;37.544;2024-01-30T03:12:04;6.4;;;5.3;;
40048;SDS011;54524;55.740;37.544;2024-01-30T03:13:04;6.4;;;5.3;;
40048;SDS011;54524;55.740;37.544;2024-01-30T03:14:05;5.5;;;4.9;;
40048;SDS011;54524;55.740;37.544;2024-01-30T03:15:06;5.5;;;4.9;;
40048;SDS011;54524;55.740;37.544;2024-01-30T03:16:08;5.5;;;4.8;;
40048;SDS011;54524;55.740;37.544;2024-01-30T03:17:08;6;;;5;;
40048;SDS011;54524;55.740;37.544;2024-01-30T03:18:09;6;;;5;;
40048;SDS011;54524;55.740;37.544;2024-01-30T03:19:09;5.9;;;5;;
40048;SDS011;54524;55.740;37.544;2024-01-30T03:21:03;5.5;;;4.9;;
40048;SDS011;54524;55.740;37.544;2024-01-30T03:22:03;5.5;;;4.9;;
40048;SDS011;54524;55.740;37.544;2024-01-30T03:23:04;5.5;;;4.9;;
40048;SDS011;54524;55.740;37.544;2024-01-30T03:24:05;5.6;;;5;;
40048;SDS011;54524;55.740;37.544;2024-01-30T03:25:05;5.6;;;5;;
40048;SDS011;54524;55.740;37.544;2024-01-30T03:26:06;5.6;;;5;;
40048;SDS011;54524;55.740;37.544;2024-01-30T03:27:07;5.8;;;4.9;;
40048;SDS011;54524;55.740;37.544;2024-01-30T03:28:07;5.7;;;4.8;;
40048;SDS011;54524;55.740;37.544;2024-01-30T03:29:08;5.6;;;4.8;;
40048;SDS011;54524;55.740;37.544;2024-01-30T03:31:06;5.7;;;5;;
40048;SDS011;54524;55.740;37.544;2024-01-30T03:32:07;5.8;;;5;;
40048;SDS011;54524;55.740;37.544;2024-01-30T03:33:07;5.9;;;5.2;;
40048;SDS011;54524;55.740;37.544;2024-01-30T03:34:08;5.9;;;5.1;;
40048;SDS011;54524;55.740;37.544;2024-01-30T03:35:09;5.8;;;5.1;;
40048;SDS011;54524;55.740;37.544;2024-01-30T03:36:10;5.9;;;4.7;;
40048;SDS011;54524;55.740;37.544;2024-01-30T03:37:11;6;;;4.7;;
40048;SDS011;54524;55.740;37.544;2024-01-30T03:38:11;6;;;4.7;;
40048;SDS011;54524;55.740;37.544;2024-01-30T03:39:12;5.9;;;4.8;;
40048;SDS011;54524;55.740;37.544;2024-01-30T03:41:03;5.9;;;4.8;;
40048;SDS011;54524;55.740;37.544;2024-01-30T03:42:04;6.4;;;5;;
40048;SDS011;54524;55.740;37.544;2024-01-30T03:43:04;6.5;;;5;;
40048;SDS011;54524;55.740;37.544;2024-01-30T03:44:05;6.5;;;5;;
40048;SDS011;54524;55.740;37.544;2024-01-30T03:45:06;0;;;0;;
40048;SDS011;54524;55.740;37.544;2024-01-30T03:46:07;5.2;;;4.7;;
40048;SDS011;54524;55.740;37.544;2024-01-30T03:47:08;5.2;;;4.7;;
40048;SDS011;54524;55.740;37.544;2024-01-30T03:48:08;5.9;;;4.8;;
40048;SDS011;54524;55.740;37.544;2024-01-30T03:49:09;5.9;;;4.8;;
40048;SDS011;54524;55.740;37.544;2024-01-30T03:51:03;5.2;;;4.4;;
40048;SDS011;54524;55.740;37.544;2024-01-30T03:52:04;5.2;;;4.4;;
40048;SDS011;54524;55.740;37.544;2024-01-30T03:53:04;5.4;;;4.5;;
40048;SDS011;54524;55.740;37.544;2024-01-30T03:54:05;5.9;;;4.8;;
40048;SDS011;54524;55.740;37.544;2024-01-30T03:55:06;5.8;;;4.8;;
40048;SDS011;54524;55.740;37.544;2024-01-30T03:56:07;5.7;;;4.7;;
40048;SDS011;54524;55.740;37.544;2024-01-30T03:57:07;5.2;;;4.4;;
40048;SDS011;54524;55.740;37.544;2024-01-30T03:58:08;5.2;;;4.5;;
40048;SDS011;54524;55.740;37.544;2024-01-30T03:59:08;5.2;;;4.5;;
40048;SDS011;54524;55.740;37.544;2024-01-30T04:01:04;5.7;;;5;;
40048;SDS011;54524;55.740;37.544;2024-01-30T04:02:04;5.6;;;4.9;;
40048;SDS011;54524;55.740;37.544;2024-01-30T04:03:05;5.3;;;4.6;;
40048;SDS011;54524;55.740;37.544;2024-01-30T04:04:05;5.5;;;4.6;;
40048;SDS011;54524;55.740;37.544;2024-01-30T04:05:06;5.7;;;4.6;;
40048;SDS011;54524;55.740;37.544;2024-01-30T04:06:07;6.1;;;4.7;;
40048;SDS011;54524;55.740;37.544;2024-01-30T04:07:07;6.2;;;4.7;;
40048;SDS011;54524;55.740;37.544;2024-01-30T04:08:08;6.2;;;4.7;;
40048;SDS011;54524;55.740;37.544;2024-01-30T04:09:08;5.4;;;4.4;;
40048;SDS011;54524;55.740;37.544;2024-01-30T04:11:03;5.3;;;4.4;;
40048;SDS011;54524;55.740;37.544;2024-01-30T04:12:03;4.5;;;4.1;;
40048;SDS011;54524;55.740;37.544;2024-01-30T04:13:04;4.7;;;4.2;;
40048;SDS011;54524;55.740;37.544;2024-01-30T04:14:05;4.5;;;4.1;;
40048;SDS011;54524;55.740;37.544;2024-01-30T04:15:06;5.4;;;4.4;;
40048;SDS011;54524;55.740;37.544;2024-01-30T04:16:06;5.4;;;4.4;;
40048;SDS011;54524;55.740;37.544;2024-01-30T04:17:07;5.5;;;4.3;;
40048;SDS011;54524;55.740;37.544;2024-01-30T04:18:07;5.3;;;4.3;;
40048;SDS011;54524;55.740;37.544;2024-01-30T04:19:08;5.3;;;4.3;;
40048;SDS011;54524;55.740;37.544;2024-01-30T04:21:04;5.2;;;4.3;;
40048;SDS011;54524;55.740;37.544;2024-01-30T04:22:04;4.9;;;4.1;;
40048;SDS011;54524;55.740;37.544;2024-01-30T04:23:05;5;;;4.1;;
40048;SDS011;54524;55.740;37.544;2024-01-30T04:24:06;5;;;4.2;;
40048;SDS011;54524;55.740;37.544;2024-01-30T04:25:06;5.7;;;4.6;;
40048;SDS011;54524;55.740;37.544;2024-01-30T04:26:07;5.7;;;4.6;;
40048;SDS011;54524;55.740;37.544;2024-01-30T04:27:07;5.5;;;4.5;;
40048;SDS011;54524;55.740;37.544;2024-01-30T04:28:08;5;;;4.1;;
40048;SDS011;54524;55.740;37.544;2024-01-30T04:29:09;5.1;;;4.1;;
40048;SDS011;54524;55.740;37.544;2024-01-30T04:31:05;6.2;;;4.4;;
40048;SDS011;54524;55.740;37.544;2024-01-30T04:32:06;6.3;;;4.4;;
40048;SDS011;54524;55.740;37.544;2024-01-30T04:33:06;6.3;;;4.4;;
40048;SDS011;54524;55.740;37.544;2024-01-30T04:34:07;5.5;;;4.4;;
40048;SDS011;54524;55.740;37.544;2024-01-30T04:35:07;5.5;;;4.4;;
40048;SDS011;54524;55.740;37.544;2024-01-30T04:36:08;5.6;;;4.5;;
40048;SDS011;54524;55.740;37.544;2024-01-30T04:37:10;6.7;;;4.3;;
40048;SDS011;54524;55.740;37.544;2024-01-30T04:38:11;6.7;;;4.3;;
40048;SDS011;54524;55.740;37.544;2024-01-30T04:39:11;6.7;;;4.3;;
40048;SDS011;54524;55.740;37.544;2024-01-30T04:41:02;5.8;;;4.7;;
40048;SDS011;54524;55.740;37.544;2024-01-30T04:42:03;5.7;;;4.7;;
40048;SDS011;54524;55.740;37.544;2024-01-30T04:43:04;6;;;4.4;;
40048;SDS011;54524;55.740;37.544;2024-01-30T04:44:04;5.9;;;4.3;;
40048;SDS011;54524;55.740;37.544;2024-01-30T04:45:05;5.9;;;4.3;;
40048;SDS011;54524;55.740;37.544;2024-01-30T04:46:06;5.5;;;4.5;;
40048;SDS011;54524;55.740;37.544;2024-01-30T04:47:06;5.3;;;4.5;;
40048;SDS011;54524;55.740;37.544;2024-01-30T04:48:09;5.3;;;4.5;;
40048;SDS011;54524;55.740;37.544;2024-01-30T04:49:09;5.1;;;4.2;;
40048;SDS011;54524;55.740;37.544;2024-01-30T04:51:03;5.1;;;4.3;;
40048;SDS011;54524;55.740;37.544;2024-01-30T04:52:04;5.7;;;4.3;;
40048;SDS011;54524;55.740;37.544;2024-01-30T04:53:05;5.7;;;4.3;;
40048;SDS011;54524;55.740;37.544;2024-01-30T04:54:05;5.8;;;4.3;;
40048;SDS011;54524;55.740;37.544;2024-01-30T04:55:06;5.8;;;4.3;;
40048;SDS011;54524;55.740;37.544;2024-01-30T04:56:07;5.8;;;4.3;;
40048;SDS011;54524;55.740;37.544;2024-01-30T04:57:07;5.8;;;4.4;;
40048;SDS011;54524;55.740;37.544;2024-01-30T04:58:09;6.2;;;4.6;;
40048;SDS011;54524;55.740;37.544;2024-01-30T04:59:10;6.2;;;4.5;;
40048;SDS011;54524;55.740;37.544;2024-01-30T05:01:04;6.3;;;4.5;;
40048;SDS011;54524;55.740;37.544;2024-01-30T05:02:05;5.8;;;4.2;;
40048;SDS011;54524;55.740;37.544;2024-01-30T05:03:06;5.8;;;4.2;;
40048;SDS011;54524;55.740;37.544;2024-01-30T05:04:07;5.8;;;4.3;;
40048;SDS011;54524;55.740;37.544;2024-01-30T05:05:07;5.4;;;4.3;;
40048;SDS011;54524;55.740;37.544;2024-01-30T05:06:08;5.3;;;4.3;;
40048;SDS011;54524;55.740;37.544;2024-01-30T05:07:09;5.3;;;4.3;;
40048;SDS011;54524;55.740;37.544;2024-01-30T05:08:09;5.3;;;4.3;;
40048;SDS011;54524;55.740;37.544;2024-01-30T05:09:10;6.4;;;4.6;;
40048;SDS011;54524;55.740;37.544;2024-01-30T05:11:03;5.7;;;4.6;;
40048;SDS011;54524;55.740;37.544;2024-01-30T05:12:04;5.7;;;4.6;;
40048;SDS011;54524;55.740;37.544;2024-01-30T05:13:05;5.7;;;4.6;;
40048;SDS011;54524;55.740;37.544;2024-01-30T05:14:06;6.9;;;4.5;;
40048;SDS011;54524;55.740;37.544;2024-01-30T05:15:06;6.8;;;4.5;;
40048;SDS011;54524;55.740;37.544;2024-01-30T05:16:07;6.8;;;4.5;;
40048;SDS011;54524;55.740;37.544;2024-01-30T05:17:07;6.8;;;4.6;;
40048;SDS011;54524;55.740;37.544;2024-01-30T05:18:10;6.9;;;4.7;;
40048;SDS011;54524;55.740;37.544;2024-01-30T05:19:10;6.8;;;4.6;;
40048;SDS011;54524;55.740;37.544;2024-01-30T05:21:03;5.7;;;4.4;;
40048;SDS011;54524;55.740;37.544;2024-01-30T05:22:04;5.6;;;4.3;;
40048;SDS011;54524;55.740;37.544;2024-01-30T05:23:04;6.8;;;4.8;;
40048;SDS011;54524;55.740;37.544;2024-01-30T05:24:05;6.8;;;4.8;;
40048;SDS011;54524;55.740;37.544;2024-01-30T05:25:06;6.7;;;4.7;;
40048;SDS011;54524;55.740;37.544;2024-01-30T05:26:07;6.5;;;4.7;;
40048;SDS011;54524;55.740;37.544;2024-01-30T05:27:07;6.4;;;4.7;;
40048;SDS011;54524;55.740;37.544;2024-01-30T05:28:08;6.1;;;4.7;;
40048;SDS011;54524;55.740;37.544;2024-01-30T05:29:08;6.6;;;4.8;;
40048;SDS011;54524;55.740;37.544;2024-01-30T05:31:04;6.6;;;4.7;;
40048;SDS011;54524;55.740;37.544;2024-01-30T05:32:05;6.5;;;4.7;;
40048;SDS011;54524;55.740;37.544;2024-01-30T05:33:06;6.5;;;4.7;;
40048;SDS011;54524;55.740;37.544;2024-01-30T05:34:06;6.5;;;4.7;;
40048;SDS011;54524;55.740;37.544;2024-01-30T05:35:08;8.9;;;4.5;;
40048;SDS011;54524;55.740;37.544;2024-01-30T05:36:11;9.1;;;4.5;;
40048;SDS011;54524;55.740;37.544;2024-01-30T05:37:12;9.1;;;4.5;;
40048;SDS011;54524;55.740;37.544;2024-01-30T05:38:17;6.7;;;5.1;;
40048;SDS011;54524;55.740;37.544;2024-01-30T05:39:17;6.6;;;5.1;;
40048;SDS011;54524;55.740;37.544;2024-01-30T05:41:03;7.5;;;4.7;;
40048;SDS011;54524;55.740;37.544;2024-01-30T05:42:04;7.6;;;4.8;;
40048;SDS011;54524;55.740;37.544;2024-01-30T05:43:04;7.3;;;4.7;;
40048;SDS011;54524;55.740;37.544;2024-01-30T05:44:05;8;;;4.9;;
40048;SDS011;54524;55.740;37.544;2024-01-30T05:45:06;8;;;4.9;;
40048;SDS011;54524;55.740;37.544;2024-01-30T05:46:06;8.2;;;4.9;;
40048;SDS011;54524;55.740;37.544;2024-01-30T05:47:07;9.1;;;5.2;;
40048;SDS011;54524;55.740;37.544;2024-01-30T05:48:07;9;;;5.2;;
40048;SDS011;54524;55.740;37.544;2024-01-30T05:49:08;8.7;;;5.1;;
40048;SDS011;54524;55.740;37.544;2024-01-30T05:51:03;5.9;;;4.9;;
40048;SDS011;54524;55.740;37.544;2024-01-30T05:52:04;6;;;5;;
40048;SDS011;54524;55.740;37.544;2024-01-30T05:53:05;7.8;;;5;;
40048;SDS011;54524;55.740;37.544;2024-01-30T05:54:05;7.8;;;5;;
40048;SDS011;54524;55.740;37.544;2024-01-30T05:55:06;8.3;;;5.1;;
40048;SDS011;54524;55.740;37.544;2024-01-30T05:56:07;8.2;;;5.1;;
40048;SDS011;54524;55.740;37.544;2024-01-30T05:57:07;9.3;;;4.5;;
40048;SDS011;54524;55.740;37.544;2024-01-30T05:58:08;8.6;;;4.6;;
40048;SDS011;54524;55.740;37.544;2024-01-30T05:59:08;8.5;;;4.5;;
40048;SDS011;54524;55.740;37.544;2024-01-30T06:01:06;7.9;;;5.4;;
40048;SDS011;54524;55.740;37.544;2024-01-30T06:02:07;7.8;;;5.4;;
40048;SDS011;54524;55.740;37.544;2024-01-30T06:03:08;0;;;0;;
40048;SDS011;54524;55.740;37.544;2024-01-30T06:04:08;8.1;;;5;;
40048;SDS011;54524;55.740;37.544;2024-01-30T06:05:09;8.2;;;5;;
40048;SDS011;54524;55.740;37.544;2024-01-30T06:06:09;9.7;;;5.1;;
40048;SDS011;54524;55.740;37.544;2024-01-30T06:07:10;9.7;;;5.1;;
40048;SDS011;54524;55.740;37.544;2024-01-30T06:08:10;9.7;;;5.1;;
40048;SDS011;54524;55.740;37.544;2024-01-30T06:09:11;8.7;;;5.5;;
40048;SDS011;54524;55.740;37.544;2024-01-30T06:11:02;8.4;;;5.4;;
40048;SDS011;54524;55.740;37.544;2024-01-30T06:12:03;8.4;;;5.3;;
40048;SDS011;54524;55.740;37.544;2024-01-30T06:13:05;8.2;;;5.3;;
40048;SDS011;54524;55.740;37.544;2024-01-30T06:14:05;8.1;;;5.3;;
40048;SDS011;54524;55.740;37.544;2024-01-30T06:15:06;9.1;;;5.2;;
40048;SDS011;54524;55.740;37.544;2024-01-30T06:16:09;9.2;;;5.2;;
40048;SDS011;54524;55.740;37.544;2024-01-30T06:17:09;9.3;;;5.3;;
40048;SDS011;54524;55.740;37.544;2024-01-30T06:18:12;9.5;;;5.4;;
40048;SDS011;54524;55.740;37.544;2024-01-30T06:19:12;9.5;;;5.4;;
40048;SDS011;54524;55.740;37.544;2024-01-30T06:21:04;8.2;;;5.5;;
40048;SDS011;54524;55.740;37.544;2024-01-30T06:22:04;8.3;;;5.4;;
40048;SDS011;54524;55.740;37.544;2024-01-30T06:23:05;8.2;;;5.4;;
40048;SDS011;54524;55.740;37.544;2024-01-30T06:24:05;10.3;;;5.4;;
40048;SDS011;54524;55.740;37.544;2024-01-30T06:25:06;10.3;;;5.4;;
40048;SDS011;54524;55.740;37.544;2024-01-30T06:26:07;10.4;;;5.4;;
40048;SDS011;54524;55.740;37.544;2024-01-30T06:27:07;7.4;;;5.3;;
40048;SDS011;54524;55.740;37.544;2024-01-30T06:28:08;7.3;;;5.3;;
40048;SDS011;54524;55.740;37.544;2024-01-30T06:29:08;7.2;;;5.2;;
40048;SDS011;54524;55.740;37.544;2024-01-30T06:31:05;9.5;;;5.4;;
40048;SDS011;54524;55.740;37.544;2024-01-30T06:32:06;9.6;;;5.4;;
40048;SDS011;54524;55.740;37.544;2024-01-30T06:33:06;8.2;;;5.6;;
40048;SDS011;54524;55.740;37.544;2024-01-30T06:34:07;8.2;;;5.6;;
40048;SDS011;54524;55.740;37.544;2024-01-30T06:35:08;8.5;;;5.6;;
40048;SDS011;54524;55.740;37.544;2024-01-30T06:36:08;11.9;;;5.8;;
40048;SDS011;54524;55.740;37.544;2024-01-30T06:37:09;11.7;;;5.7;;
40048;SDS011;54524;55.740;37.544;2024-01-30T06:38:09;11.5;;;5.6;;
40048;SDS011;54524;55.740;37.544;2024-01-30T06:39:10;8.5;;;5.7;;
40048;SDS011;54524;55.740;37.544;2024-01-30T06:41:03;8.3;;;5.7;;
40048;SDS011;54524;55.740;37.544;2024-01-30T06:42:04;8.2;;;5.7;;
40048;SDS011;54524;55.740;37.544;2024-01-30T06:43:05;9.6;;;5.4;;
40048;SDS011;54524;55.740;37.544;2024-01-30T06:44:05;9.5;;;5.3;;
40048;SDS011;54524;55.740;37.544;2024-01-30T06:45:09;9.5;;;5.3;;
40048;SDS011;54524;55.740;37.544;2024-01-30T06:46:09;10.4;;;6.2;;
40048;SDS011;54524;55.740;37.544;2024-01-30T06:47:10;10.2;;;6.2;;
40048;SDS011;54524;55.740;37.544;2024-01-30T06:48:10;9.9;;;6.1;;
40048;SDS011;54524;55.740;37.544;2024-01-30T06:49:11;9.4;;;5.8;;
40048;SDS011;54524;55.740;37.544;2024-01-30T06:51:03;10.1;;;5.6;;